sensor_id;sensor_type;location;lat;lon;timestamp;P1;durP1;ratioP1;P2;durP2;ratioP2
2257;SDS011;1136;51.574;7.706;2023-08-31T00:01:36;13.60;;;7.97;;
2257;SDS011;1136;51.574;7.706;2023-08-31T00:04:04;9.07;;;8.07;;
2257;SDS011;1136;51.574;7.706;2023-08-31T00:06:32;10.17;;;7.00;;
2257;SDS011;1136;51.574;7.706;2023-08-31T00:08:58;8.10;;;7.00;;
2257;SDS011;1136;51.574;7.706;2023-08-31T00:11:25;9.60;;;7.93;;
2257;SDS011;1136;51.574;7.706;2023-08-31T00:13:52;9.53;;;6.93;;
2257;SDS011;1136;51.574;7.706;2023-08-31T00:16:20;7.47;;;6.70;;
2257;SDS011;1136;51.574;7.706;2023-08-31T00:18:50;8.50;;;6.30;;
2257;SDS011;1136;51.574;7.706;2023-08-31T00:21:17;7.03;;;5.93;;
2257;SDS011;1136;51.574;7.706;2023-08-31T00:23:44;8.60;;;6.10;;
2257;SDS011;1136;51.574;7.706;2023-08-31T00:26:11;9.73;;;6.77;;
2257;SDS011;1136;51.574;7.706;2023-08-31T00:28:37;6.83;;;6.13;;
2257;SDS011;1136;51.574;7.706;2023-08-31T00:31:05;8.37;;;7.00;;
2257;SDS011;1136;51.574;7.706;2023-08-31T00:33:32;8.60;;;6.70;;
2257;SDS011;1136;51.574;7.706;2023-08-31T00:36:00;12.77;;;6.00;;
2257;SDS011;1136;51.574;7.706;2023-08-31T00:38:30;11.60;;;7.33;;
2257;SDS011;1136;51.574;7.706;2023-08-31T00:40:57;16.80;;;7.17;;
2257;SDS011;1136;51.574;7.706;2023-08-31T00:43:24;7.33;;;6.53;;
2257;SDS011;1136;51.574;7.706;2023-08-31T00:45:51;12.07;;;6.50;;
2257;SDS011;1136;51.574;7.706;2023-08-31T00:48:23;6.70;;;6.10;;
2257;SDS011;1136;51.574;7.706;2023-08-31T00:50:50;12.53;;;6.10;;
2257;SDS011;1136;51.574;7.706;2023-08-31T00:53:17;9.83;;;5.30;;
2257;SDS011;1136;51.574;7.706;2023-08-31T00:55:44;8.87;;;6.80;;
2257;SDS011;1136;51.574;7.706;2023-08-31T00:58:11;7.30;;;6.43;;
2257;SDS011;1136;51.574;7.706;2023-08-31T01:03:27;9.57;;;6.17;;
2257;SDS011;1136;51.574;7.706;2023-08-31T01:11:49;6.83;;;5.60;;
2257;SDS011;1136;51.574;7.706;2023-08-31T01:14:23;7.10;;;5.37;;
2257;SDS011;1136;51.574;7.706;2023-08-31T01:16:51;6.83;;;5.00;;
2257;SDS011;1136;51.574;7.706;2023-08-31T01:21:57;7.80;;;5.33;;
2257;SDS011;1136;51.574;7.706;2023-08-31T01:24:27;9.03;;;5.87;;
2257;SDS011;1136;51.574;7.706;2023-08-31T01:26:54;11.93;;;5.57;;
2257;SDS011;1136;51.574;7.706;2023-08-31T01:29:20;8.23;;;6.00;;
2257;SDS011;1136;51.574;7.706;2023-08-31T01:31:47;10.17;;;5.50;;
2257;SDS011;1136;51.574;7.706;2023-08-31T01:34:14;8.07;;;5.40;;
2257;SDS011;1136;51.574;7.706;2023-08-31T01:36:42;8.07;;;5.30;;
2257;SDS011;1136;51.574;7.706;2023-08-31T01:39:23;5.50;;;4.90;;
2257;SDS011;1136;51.574;7.706;2023-08-31T01:41:55;7.30;;;5.13;;
2257;SDS011;1136;51.574;7.706;2023-08-31T01:44:23;9.30;;;4.83;;
2257;SDS011;1136;51.574;7.706;2023-08-31T01:46:53;6.00;;;4.10;;
2257;SDS011;1136;51.574;7.706;2023-08-31T01:49:20;9.50;;;5.00;;
2257;SDS011;1136;51.574;7.706;2023-08-31T01:51:49;7.93;;;4.97;;
2257;SDS011;1136;51.574;7.706;2023-08-31T01:54:16;10.27;;;5.13;;
2257;SDS011;1136;51.574;7.706;2023-08-31T01:56:43;7.93;;;5.30;;
2257;SDS011;1136;51.574;7.706;2023-08-31T01:59:10;10.80;;;5.27;;
2257;SDS011;1136;51.574;7.706;2023-08-31T02:01:37;7.93;;;4.83;;
2257;SDS011;1136;51.574;7.706;2023-08-31T02:04:04;8.83;;;5.37;;
2257;SDS011;1136;51.574;7.706;2023-08-31T02:06:31;7.63;;;5.13;;
2257;SDS011;1136;51.574;7.706;2023-08-31T02:08:58;7.33;;;5.03;;
2257;SDS011;1136;51.574;7.706;2023-08-31T02:11:24;5.47;;;4.97;;
2257;SDS011;1136;51.574;7.706;2023-08-31T02:13:51;7.67;;;5.00;;
2257;SDS011;1136;51.574;7.706;2023-08-31T02:16:18;7.67;;;5.20;;
2257;SDS011;1136;51.574;7.706;2023-08-31T02:18:45;10.57;;;5.00;;
2257;SDS011;1136;51.574;7.706;2023-08-31T02:21:11;7.57;;;5.93;;
2257;SDS011;1136;51.574;7.706;2023-08-31T02:23:38;12.90;;;5.70;;
2257;SDS011;1136;51.574;7.706;2023-08-31T02:26:05;6.93;;;5.63;;
2257;SDS011;1136;51.574;7.706;2023-08-31T02:28:32;6.90;;;5.60;;
2257;SDS011;1136;51.574;7.706;2023-08-31T02:31:00;9.10;;;5.50;;
2257;SDS011;1136;51.574;7.706;2023-08-31T02:33:28;12.17;;;6.03;;
2257;SDS011;1136;51.574;7.706;2023-08-31T02:35:54;12.50;;;5.70;;
2257;SDS011;1136;51.574;7.706;2023-08-31T02:38:22;9.23;;;5.27;;
2257;SDS011;1136;51.574;7.706;2023-08-31T02:40:49;9.87;;;6.23;;
2257;SDS011;1136;51.574;7.706;2023-08-31T02:43:16;13.40;;;6.33;;
2257;SDS011;1136;51.574;7.706;2023-08-31T02:45:42;8.50;;;5.30;;
2257;SDS011;1136;51.574;7.706;2023-08-31T02:48:09;6.67;;;5.97;;
2257;SDS011;1136;51.574;7.706;2023-08-31T02:50:36;11.13;;;5.90;;
2257;SDS011;1136;51.574;7.706;2023-08-31T02:53:04;6.10;;;5.50;;
2257;SDS011;1136;51.574;7.706;2023-08-31T02:55:32;7.80;;;5.30;;
2257;SDS011;1136;51.574;7.706;2023-08-31T02:57:59;7.00;;;5.63;;
2257;SDS011;1136;51.574;7.706;2023-08-31T03:00:26;8.13;;;5.93;;
2257;SDS011;1136;51.574;7.706;2023-08-31T03:02:52;7.60;;;6.73;;
2257;SDS011;1136;51.574;7.706;2023-08-31T03:05:19;7.00;;;6.07;;
2257;SDS011;1136;51.574;7.706;2023-08-31T03:07:47;7.73;;;5.60;;
2257;SDS011;1136;51.574;7.706;2023-08-31T03:10:14;7.17;;;5.30;;
2257;SDS011;1136;51.574;7.706;2023-08-31T03:12:41;8.47;;;6.10;;
2257;SDS011;1136;51.574;7.706;2023-08-31T03:15:07;7.53;;;6.10;;
2257;SDS011;1136;51.574;7.706;2023-08-31T03:17:34;7.37;;;6.33;;
2257;SDS011;1136;51.574;7.706;2023-08-31T03:20:02;9.30;;;5.60;;
2257;SDS011;1136;51.574;7.706;2023-08-31T03:22:30;8.63;;;5.57;;
2257;SDS011;1136;51.574;7.706;2023-08-31T03:24:56;6.83;;;5.77;;
2257;SDS011;1136;51.574;7.706;2023-08-31T03:27:24;6.67;;;5.60;;
2257;SDS011;1136;51.574;7.706;2023-08-31T03:29:51;8.37;;;5.50;;
2257;SDS011;1136;51.574;7.706;2023-08-31T03:32:18;6.17;;;5.30;;
2257;SDS011;1136;51.574;7.706;2023-08-31T03:34:45;7.90;;;5.93;;
2257;SDS011;1136;51.574;7.706;2023-08-31T03:37:12;8.27;;;6.23;;
2257;SDS011;1136;51.574;7.706;2023-08-31T03:39:39;6.50;;;5.90;;
2257;SDS011;1136;51.574;7.706;2023-08-31T03:42:07;8.00;;;5.60;;
2257;SDS011;1136;51.574;7.706;2023-08-31T03:44:35;6.67;;;6.03;;
2257;SDS011;1136;51.574;7.706;2023-08-31T03:47:03;6.70;;;5.80;;
2257;SDS011;1136;51.574;7.706;2023-08-31T03:49:30;7.50;;;6.20;;
2257;SDS011;1136;51.574;7.706;2023-08-31T03:51:58;11.70;;;7.90;;
2257;SDS011;1136;51.574;7.706;2023-08-31T03:54:25;11.00;;;7.00;;
2257;SDS011;1136;51.574;7.706;2023-08-31T03:56:51;9.10;;;8.17;;
2257;SDS011;1136;51.574;7.706;2023-08-31T03:59:18;11.40;;;7.57;;
2257;SDS011;1136;51.574;7.706;2023-08-31T04:01:45;8.77;;;7.87;;
2257;SDS011;1136;51.574;7.706;2023-08-31T04:04:13;10.97;;;9.13;;
2257;SDS011;1136;51.574;7.706;2023-08-31T04:06:39;11.73;;;8.40;;
2257;SDS011;1136;51.574;7.706;2023-08-31T04:09:06;8.87;;;7.47;;
2257;SDS011;1136;51.574;7.706;2023-08-31T04:11:33;8.07;;;7.30;;
2257;SDS011;1136;51.574;7.706;2023-08-31T04:13:59;10.47;;;8.30;;
2257;SDS011;1136;51.574;7.706;2023-08-31T04:16:26;8.33;;;7.00;;
2257;SDS011;1136;51.574;7.706;2023-08-31T04:18:54;10.20;;;8.87;;
2257;SDS011;1136;51.574;7.706;2023-08-31T04:21:21;9.10;;;7.50;;
2257;SDS011;1136;51.574;7.706;2023-08-31T04:23:48;11.40;;;8.77;;
2257;SDS011;1136;51.574;7.706;2023-08-31T04:26:15;10.73;;;8.30;;
2257;SDS011;1136;51.574;7.706;2023-08-31T04:28:42;10.63;;;9.57;;
2257;SDS011;1136;51.574;7.706;2023-08-31T04:31:09;10.83;;;9.77;;
2257;SDS011;1136;51.574;7.706;2023-08-31T04:33:36;10.97;;;9.47;;
2257;SDS011;1136;51.574;7.706;2023-08-31T04:36:04;10.93;;;9.90;;
2257;SDS011;1136;51.574;7.706;2023-08-31T04:38:32;10.70;;;9.63;;
2257;SDS011;1136;51.574;7.706;2023-08-31T04:41:00;12.20;;;10.70;;
2257;SDS011;1136;51.574;7.706;2023-08-31T04:43:27;12.03;;;10.80;;
2257;SDS011;1136;51.574;7.706;2023-08-31T04:45:54;11.40;;;10.20;;
2257;SDS011;1136;51.574;7.706;2023-08-31T04:48:21;10.90;;;9.80;;
2257;SDS011;1136;51.574;7.706;2023-08-31T04:50:48;11.73;;;10.53;;
2257;SDS011;1136;51.574;7.706;2023-08-31T04:53:14;13.93;;;10.50;;
2257;SDS011;1136;51.574;7.706;2023-08-31T04:55:41;12.40;;;10.50;;
2257;SDS011;1136;51.574;7.706;2023-08-31T04:58:08;13.60;;;11.17;;
2257;SDS011;1136;51.574;7.706;2023-08-31T05:00:35;12.50;;;11.20;;
2257;SDS011;1136;51.574;7.706;2023-08-31T05:03:02;12.60;;;11.30;;
2257;SDS011;1136;51.574;7.706;2023-08-31T05:05:29;13.00;;;11.70;;
2257;SDS011;1136;51.574;7.706;2023-08-31T05:07:58;14.97;;;12.10;;
2257;SDS011;1136;51.574;7.706;2023-08-31T05:10:25;15.10;;;13.70;;
2257;SDS011;1136;51.574;7.706;2023-08-31T05:12:52;14.10;;;12.80;;
2257;SDS011;1136;51.574;7.706;2023-08-31T05:15:18;13.27;;;11.47;;
2257;SDS011;1136;51.574;7.706;2023-08-31T05:17:46;14.30;;;12.83;;
2257;SDS011;1136;51.574;7.706;2023-08-31T05:20:15;14.23;;;13.00;;
2257;SDS011;1136;51.574;7.706;2023-08-31T05:22:42;16.33;;;12.07;;
2257;SDS011;1136;51.574;7.706;2023-08-31T05:25:08;13.80;;;11.57;;
2257;SDS011;1136;51.574;7.706;2023-08-31T05:27:35;14.60;;;13.17;;
2257;SDS011;1136;51.574;7.706;2023-08-31T05:30:02;13.33;;;11.50;;
2257;SDS011;1136;51.574;7.706;2023-08-31T05:32:31;13.93;;;12.37;;
2257;SDS011;1136;51.574;7.706;2023-08-31T05:34:58;14.30;;;13.20;;
2257;SDS011;1136;51.574;7.706;2023-08-31T05:37:26;13.97;;;12.77;;
2257;SDS011;1136;51.574;7.706;2023-08-31T05:39:52;14.00;;;12.63;;
2257;SDS011;1136;51.574;7.706;2023-08-31T05:42:20;14.60;;;13.10;;
2257;SDS011;1136;51.574;7.706;2023-08-31T05:44:46;12.77;;;11.43;;
2257;SDS011;1136;51.574;7.706;2023-08-31T05:47:14;15.63;;;12.33;;
2257;SDS011;1136;51.574;7.706;2023-08-31T05:49:41;14.10;;;12.73;;
2257;SDS011;1136;51.574;7.706;2023-08-31T05:52:07;14.20;;;12.93;;
2257;SDS011;1136;51.574;7.706;2023-08-31T05:54:37;13.87;;;12.30;;
2257;SDS011;1136;51.574;7.706;2023-08-31T05:57:04;17.03;;;12.17;;
2257;SDS011;1136;51.574;7.706;2023-08-31T05:59:32;15.73;;;14.27;;
2257;SDS011;1136;51.574;7.706;2023-08-31T06:01:58;13.67;;;12.37;;
2257;SDS011;1136;51.574;7.706;2023-08-31T06:04:25;16.23;;;13.37;;
2257;SDS011;1136;51.574;7.706;2023-08-31T06:06:52;14.83;;;13.33;;
2257;SDS011;1136;51.574;7.706;2023-08-31T06:09:20;15.03;;;13.60;;
2257;SDS011;1136;51.574;7.706;2023-08-31T06:11:47;13.90;;;12.60;;
2257;SDS011;1136;51.574;7.706;2023-08-31T06:14:13;15.10;;;11.80;;
2257;SDS011;1136;51.574;7.706;2023-08-31T06:16:40;14.27;;;12.87;;
2257;SDS011;1136;51.574;7.706;2023-08-31T06:19:07;16.40;;;11.47;;
2257;SDS011;1136;51.574;7.706;2023-08-31T06:21:34;13.40;;;11.60;;
2257;SDS011;1136;51.574;7.706;2023-08-31T06:24:01;13.30;;;11.87;;
2257;SDS011;1136;51.574;7.706;2023-08-31T06:26:29;17.03;;;11.83;;
2257;SDS011;1136;51.574;7.706;2023-08-31T06:28:55;15.70;;;11.23;;
2257;SDS011;1136;51.574;7.706;2023-08-31T06:31:22;13.17;;;12.03;;
2257;SDS011;1136;51.574;7.706;2023-08-31T06:33:49;13.47;;;12.20;;
2257;SDS011;1136;51.574;7.706;2023-08-31T06:36:15;12.90;;;11.67;;
2257;SDS011;1136;51.574;7.706;2023-08-31T06:38:42;13.10;;;11.77;;
2257;SDS011;1136;51.574;7.706;2023-08-31T06:41:09;16.67;;;10.83;;
2257;SDS011;1136;51.574;7.706;2023-08-31T06:43:36;13.20;;;12.10;;
2257;SDS011;1136;51.574;7.706;2023-08-31T06:46:02;12.30;;;11.20;;
2257;SDS011;1136;51.574;7.706;2023-08-31T06:48:48;11.57;;;10.47;;
2257;SDS011;1136;51.574;7.706;2023-08-31T06:51:15;10.97;;;9.87;;
2257;SDS011;1136;51.574;7.706;2023-08-31T06:53:43;14.10;;;10.60;;
2257;SDS011;1136;51.574;7.706;2023-08-31T06:56:10;10.80;;;9.73;;
2257;SDS011;1136;51.574;7.706;2023-08-31T06:58:36;13.97;;;10.93;;
2257;SDS011;1136;51.574;7.706;2023-08-31T07:01:06;12.77;;;11.47;;
2257;SDS011;1136;51.574;7.706;2023-08-31T07:03:32;9.80;;;9.00;;
2257;SDS011;1136;51.574;7.706;2023-08-31T07:05:59;10.57;;;9.57;;
2257;SDS011;1136;51.574;7.706;2023-08-31T07:08:26;10.13;;;9.17;;
2257;SDS011;1136;51.574;7.706;2023-08-31T07:10:53;10.27;;;9.27;;
2257;SDS011;1136;51.574;7.706;2023-08-31T07:13:20;10.07;;;8.70;;
2257;SDS011;1136;51.574;7.706;2023-08-31T07:15:47;8.87;;;8.17;;
2257;SDS011;1136;51.574;7.706;2023-08-31T07:18:15;10.80;;;8.30;;
2257;SDS011;1136;51.574;7.706;2023-08-31T07:20:42;9.20;;;8.30;;
2257;SDS011;1136;51.574;7.706;2023-08-31T07:23:08;8.53;;;7.63;;
2257;SDS011;1136;51.574;7.706;2023-08-31T07:25:35;7.60;;;6.97;;
2257;SDS011;1136;51.574;7.706;2023-08-31T07:28:02;8.70;;;7.90;;
2257;SDS011;1136;51.574;7.706;2023-08-31T07:30:29;11.03;;;7.57;;
2257;SDS011;1136;51.574;7.706;2023-08-31T07:32:56;10.50;;;6.80;;
2257;SDS011;1136;51.574;7.706;2023-08-31T07:35:23;8.13;;;7.30;;
2257;SDS011;1136;51.574;7.706;2023-08-31T07:37:49;6.47;;;5.90;;
2257;SDS011;1136;51.574;7.706;2023-08-31T07:40:16;6.90;;;6.20;;
2257;SDS011;1136;51.574;7.706;2023-08-31T07:42:43;6.30;;;5.80;;
2257;SDS011;1136;51.574;7.706;2023-08-31T07:45:10;9.37;;;5.70;;
2257;SDS011;1136;51.574;7.706;2023-08-31T07:47:36;6.80;;;5.80;;
2257;SDS011;1136;51.574;7.706;2023-08-31T07:50:03;5.47;;;4.97;;
2257;SDS011;1136;51.574;7.706;2023-08-31T07:52:30;7.30;;;5.53;;
2257;SDS011;1136;51.574;7.706;2023-08-31T07:54:57;5.53;;;4.80;;
2257;SDS011;1136;51.574;7.706;2023-08-31T07:57:23;8.20;;;5.00;;
2257;SDS011;1136;51.574;7.706;2023-08-31T07:59:50;7.73;;;6.57;;
2257;SDS011;1136;51.574;7.706;2023-08-31T08:02:18;5.23;;;4.47;;
2257;SDS011;1136;51.574;7.706;2023-08-31T08:04:45;7.00;;;4.47;;
2257;SDS011;1136;51.574;7.706;2023-08-31T08:07:12;6.83;;;5.00;;
2257;SDS011;1136;51.574;7.706;2023-08-31T08:09:39;4.10;;;3.70;;
2257;SDS011;1136;51.574;7.706;2023-08-31T08:12:06;6.17;;;3.77;;
2257;SDS011;1136;51.574;7.706;2023-08-31T08:14:32;5.20;;;3.73;;
2257;SDS011;1136;51.574;7.706;2023-08-31T08:16:59;3.73;;;3.40;;
2257;SDS011;1136;51.574;7.706;2023-08-31T08:19:26;5.47;;;3.30;;
2257;SDS011;1136;51.574;7.706;2023-08-31T08:21:53;5.87;;;4.00;;
2257;SDS011;1136;51.574;7.706;2023-08-31T08:24:20;4.73;;;3.63;;
2257;SDS011;1136;51.574;7.706;2023-08-31T08:26:47;3.40;;;3.10;;
2257;SDS011;1136;51.574;7.706;2023-08-31T08:29:13;3.40;;;3.00;;
2257;SDS011;1136;51.574;7.706;2023-08-31T08:31:41;4.60;;;3.23;;
2257;SDS011;1136;51.574;7.706;2023-08-31T08:34:08;3.00;;;2.80;;
2257;SDS011;1136;51.574;7.706;2023-08-31T08:36:35;4.37;;;3.30;;
2257;SDS011;1136;51.574;7.706;2023-08-31T08:39:02;2.87;;;2.37;;
2257;SDS011;1136;51.574;7.706;2023-08-31T08:41:31;6.50;;;3.00;;
2257;SDS011;1136;51.574;7.706;2023-08-31T08:44:01;2.80;;;2.60;;
2257;SDS011;1136;51.574;7.706;2023-08-31T08:46:30;4.67;;;2.30;;
2257;SDS011;1136;51.574;7.706;2023-08-31T08:48:59;4.17;;;2.57;;
2257;SDS011;1136;51.574;7.706;2023-08-31T08:51:27;4.33;;;2.33;;
2257;SDS011;1136;51.574;7.706;2023-08-31T08:53:54;2.57;;;2.37;;
2257;SDS011;1136;51.574;7.706;2023-08-31T08:56:22;5.70;;;2.63;;
2257;SDS011;1136;51.574;7.706;2023-08-31T08:58:49;3.03;;;2.20;;
2257;SDS011;1136;51.574;7.706;2023-08-31T09:01:16;3.83;;;2.23;;
2257;SDS011;1136;51.574;7.706;2023-08-31T09:03:44;2.97;;;2.10;;
2257;SDS011;1136;51.574;7.706;2023-08-31T09:06:11;3.17;;;2.10;;
2257;SDS011;1136;51.574;7.706;2023-08-31T09:08:37;3.90;;;2.20;;
2257;SDS011;1136;51.574;7.706;2023-08-31T09:11:07;2.27;;;2.00;;
2257;SDS011;1136;51.574;7.706;2023-08-31T09:13:35;2.57;;;2.10;;
2257;SDS011;1136;51.574;7.706;2023-08-31T09:16:02;4.30;;;1.83;;
2257;SDS011;1136;51.574;7.706;2023-08-31T09:18:29;3.53;;;2.20;;
2257;SDS011;1136;51.574;7.706;2023-08-31T09:21:02;6.90;;;2.20;;
2257;SDS011;1136;51.574;7.706;2023-08-31T09:23:29;4.97;;;2.60;;
2257;SDS011;1136;51.574;7.706;2023-08-31T09:25:56;2.80;;;1.80;;
2257;SDS011;1136;51.574;7.706;2023-08-31T09:28:23;3.10;;;2.10;;
2257;SDS011;1136;51.574;7.706;2023-08-31T09:31:04;3.90;;;2.70;;
2257;SDS011;1136;51.574;7.706;2023-08-31T09:33:34;3.47;;;2.70;;
2257;SDS011;1136;51.574;7.706;2023-08-31T09:36:02;2.40;;;2.20;;
2257;SDS011;1136;51.574;7.706;2023-08-31T09:38:30;6.00;;;2.73;;
2257;SDS011;1136;51.574;7.706;2023-08-31T09:41:06;2.77;;;2.53;;
2257;SDS011;1136;51.574;7.706;2023-08-31T09:43:33;3.90;;;2.60;;
2257;SDS011;1136;51.574;7.706;2023-08-31T09:46:00;3.27;;;2.43;;
2257;SDS011;1136;51.574;7.706;2023-08-31T09:48:29;3.03;;;2.73;;
2257;SDS011;1136;51.574;7.706;2023-08-31T09:50:56;2.57;;;2.37;;
2257;SDS011;1136;51.574;7.706;2023-08-31T09:53:32;3.33;;;2.90;;
2257;SDS011;1136;51.574;7.706;2023-08-31T09:56:04;4.37;;;2.20;;
2257;SDS011;1136;51.574;7.706;2023-08-31T09:58:32;2.17;;;2.00;;
2257;SDS011;1136;51.574;7.706;2023-08-31T10:00:59;2.00;;;1.80;;
2257;SDS011;1136;51.574;7.706;2023-08-31T10:03:26;5.03;;;2.20;;
2257;SDS011;1136;51.574;7.706;2023-08-31T10:05:53;2.77;;;2.03;;
2257;SDS011;1136;51.574;7.706;2023-08-31T10:08:20;4.20;;;2.83;;
2257;SDS011;1136;51.574;7.706;2023-08-31T10:10:47;2.67;;;1.60;;
2257;SDS011;1136;51.574;7.706;2023-08-31T10:13:14;5.70;;;2.20;;
2257;SDS011;1136;51.574;7.706;2023-08-31T10:15:43;2.30;;;2.17;;
2257;SDS011;1136;51.574;7.706;2023-08-31T10:18:10;2.40;;;2.20;;
2257;SDS011;1136;51.574;7.706;2023-08-31T10:20:37;6.97;;;3.17;;
2257;SDS011;1136;51.574;7.706;2023-08-31T10:23:07;8.40;;;2.60;;
2257;SDS011;1136;51.574;7.706;2023-08-31T10:36:16;3.90;;;2.70;;
2257;SDS011;1136;51.574;7.706;2023-08-31T10:38:47;3.50;;;2.33;;
2257;SDS011;1136;51.574;7.706;2023-08-31T10:41:32;12.27;;;3.07;;
2257;SDS011;1136;51.574;7.706;2023-08-31T10:44:02;3.40;;;2.73;;
2257;SDS011;1136;51.574;7.706;2023-08-31T10:46:54;3.20;;;2.23;;
2257;SDS011;1136;51.574;7.706;2023-08-31T10:49:22;2.50;;;2.37;;
2257;SDS011;1136;51.574;7.706;2023-08-31T10:51:50;4.73;;;3.20;;
2257;SDS011;1136;51.574;7.706;2023-08-31T10:54:31;4.50;;;3.73;;
2257;SDS011;1136;51.574;7.706;2023-08-31T10:57:02;5.13;;;4.70;;
2257;SDS011;1136;51.574;7.706;2023-08-31T11:02:34;4.70;;;4.30;;
2257;SDS011;1136;51.574;7.706;2023-08-31T11:05:06;5.07;;;4.67;;
2257;SDS011;1136;51.574;7.706;2023-08-31T11:07:34;6.23;;;5.50;;
2257;SDS011;1136;51.574;7.706;2023-08-31T11:10:16;5.87;;;5.43;;
2257;SDS011;1136;51.574;7.706;2023-08-31T11:12:55;4.57;;;4.17;;
2257;SDS011;1136;51.574;7.706;2023-08-31T11:15:25;11.87;;;5.70;;
2257;SDS011;1136;51.574;7.706;2023-08-31T11:17:56;6.30;;;5.70;;
2257;SDS011;1136;51.574;7.706;2023-08-31T11:20:23;7.57;;;6.43;;
2257;SDS011;1136;51.574;7.706;2023-08-31T11:22:55;9.47;;;6.00;;
2257;SDS011;1136;51.574;7.706;2023-08-31T11:25:22;6.57;;;5.90;;
2257;SDS011;1136;51.574;7.706;2023-08-31T11:30:21;6.20;;;5.67;;
2257;SDS011;1136;51.574;7.706;2023-08-31T11:32:50;6.90;;;5.60;;
2257;SDS011;1136;51.574;7.706;2023-08-31T11:35:18;6.63;;;5.93;;
2257;SDS011;1136;51.574;7.706;2023-08-31T11:37:49;6.13;;;5.50;;
2257;SDS011;1136;51.574;7.706;2023-08-31T11:40:16;6.37;;;5.87;;
2257;SDS011;1136;51.574;7.706;2023-08-31T11:42:43;8.83;;;5.60;;
2257;SDS011;1136;51.574;7.706;2023-08-31T11:45:11;7.03;;;5.93;;
2257;SDS011;1136;51.574;7.706;2023-08-31T11:47:39;9.83;;;5.87;;
2257;SDS011;1136;51.574;7.706;2023-08-31T11:50:07;5.07;;;4.63;;
2257;SDS011;1136;51.574;7.706;2023-08-31T11:52:34;4.90;;;4.37;;
2257;SDS011;1136;51.574;7.706;2023-08-31T11:55:02;5.77;;;3.80;;
2257;SDS011;1136;51.574;7.706;2023-08-31T11:57:30;4.80;;;3.53;;
2257;SDS011;1136;51.574;7.706;2023-08-31T11:59:56;5.13;;;3.90;;
2257;SDS011;1136;51.574;7.706;2023-08-31T12:02:23;3.47;;;3.17;;
2257;SDS011;1136;51.574;7.706;2023-08-31T12:04:51;3.53;;;2.93;;
2257;SDS011;1136;51.574;7.706;2023-08-31T12:07:24;3.73;;;3.33;;
2257;SDS011;1136;51.574;7.706;2023-08-31T12:09:51;3.60;;;3.00;;
2257;SDS011;1136;51.574;7.706;2023-08-31T12:12:20;5.13;;;3.17;;
2257;SDS011;1136;51.574;7.706;2023-08-31T12:14:52;3.70;;;3.17;;
2257;SDS011;1136;51.574;7.706;2023-08-31T12:17:19;3.10;;;2.90;;
2257;SDS011;1136;51.574;7.706;2023-08-31T12:19:45;5.90;;;3.70;;
2257;SDS011;1136;51.574;7.706;2023-08-31T12:22:14;4.60;;;3.40;;
2257;SDS011;1136;51.574;7.706;2023-08-31T12:24:41;4.80;;;3.20;;
2257;SDS011;1136;51.574;7.706;2023-08-31T12:27:08;3.20;;;3.00;;
2257;SDS011;1136;51.574;7.706;2023-08-31T12:29:35;4.67;;;3.90;;
2257;SDS011;1136;51.574;7.706;2023-08-31T12:32:02;4.23;;;3.83;;
2257;SDS011;1136;51.574;7.706;2023-08-31T12:34:29;4.67;;;4.33;;
2257;SDS011;1136;51.574;7.706;2023-08-31T12:36:59;4.27;;;3.87;;
2257;SDS011;1136;51.574;7.706;2023-08-31T12:39:27;4.33;;;3.93;;
2257;SDS011;1136;51.574;7.706;2023-08-31T12:41:53;4.47;;;4.00;;
2257;SDS011;1136;51.574;7.706;2023-08-31T12:44:31;3.63;;;3.33;;
2257;SDS011;1136;51.574;7.706;2023-08-31T12:46:57;4.43;;;3.47;;
2257;SDS011;1136;51.574;7.706;2023-08-31T12:49:24;3.90;;;3.43;;
2257;SDS011;1136;51.574;7.706;2023-08-31T12:51:51;3.10;;;2.83;;
2257;SDS011;1136;51.574;7.706;2023-08-31T12:54:18;4.30;;;3.37;;
2257;SDS011;1136;51.574;7.706;2023-08-31T12:56:45;3.03;;;2.73;;
2257;SDS011;1136;51.574;7.706;2023-08-31T12:59:12;3.30;;;2.63;;
2257;SDS011;1136;51.574;7.706;2023-08-31T13:01:39;5.20;;;2.63;;
2257;SDS011;1136;51.574;7.706;2023-08-31T13:04:05;2.60;;;2.40;;
2257;SDS011;1136;51.574;7.706;2023-08-31T13:06:32;2.83;;;2.17;;
2257;SDS011;1136;51.574;7.706;2023-08-31T13:08:59;3.57;;;2.00;;
2257;SDS011;1136;51.574;7.706;2023-08-31T13:11:25;6.77;;;2.47;;
2257;SDS011;1136;51.574;7.706;2023-08-31T13:13:52;4.17;;;2.70;;
2257;SDS011;1136;51.574;7.706;2023-08-31T13:16:19;4.97;;;2.50;;
2257;SDS011;1136;51.574;7.706;2023-08-31T13:18:48;2.20;;;2.10;;
2257;SDS011;1136;51.574;7.706;2023-08-31T13:21:15;6.20;;;2.80;;
2257;SDS011;1136;51.574;7.706;2023-08-31T13:23:42;2.40;;;2.10;;
2257;SDS011;1136;51.574;7.706;2023-08-31T13:26:13;4.90;;;2.90;;
2257;SDS011;1136;51.574;7.706;2023-08-31T13:28:39;6.77;;;3.07;;
2257;SDS011;1136;51.574;7.706;2023-08-31T13:31:07;4.60;;;2.57;;
2257;SDS011;1136;51.574;7.706;2023-08-31T13:33:35;3.97;;;2.23;;
2257;SDS011;1136;51.574;7.706;2023-08-31T13:36:02;2.70;;;1.83;;
2257;SDS011;1136;51.574;7.706;2023-08-31T13:38:29;7.47;;;2.13;;
2257;SDS011;1136;51.574;7.706;2023-08-31T13:40:56;2.37;;;2.17;;
2257;SDS011;1136;51.574;7.706;2023-08-31T13:43:23;2.70;;;1.73;;
2257;SDS011;1136;51.574;7.706;2023-08-31T13:45:50;3.10;;;2.20;;
2257;SDS011;1136;51.574;7.706;2023-08-31T13:48:17;4.57;;;2.40;;
2257;SDS011;1136;51.574;7.706;2023-08-31T13:50:46;2.60;;;2.27;;
2257;SDS011;1136;51.574;7.706;2023-08-31T13:53:13;3.50;;;2.00;;
2257;SDS011;1136;51.574;7.706;2023-08-31T13:55:40;2.90;;;2.10;;
2257;SDS011;1136;51.574;7.706;2023-08-31T13:58:07;3.83;;;2.10;;
2257;SDS011;1136;51.574;7.706;2023-08-31T14:00:35;3.07;;;2.77;;
2257;SDS011;1136;51.574;7.706;2023-08-31T14:03:03;2.10;;;2.00;;
2257;SDS011;1136;51.574;7.706;2023-08-31T14:05:31;2.27;;;2.07;;
2257;SDS011;1136;51.574;7.706;2023-08-31T14:07:58;4.00;;;3.20;;
2257;SDS011;1136;51.574;7.706;2023-08-31T14:10:27;3.43;;;2.20;;
2257;SDS011;1136;51.574;7.706;2023-08-31T14:12:54;3.17;;;2.07;;
2257;SDS011;1136;51.574;7.706;2023-08-31T14:15:21;2.30;;;2.10;;
2257;SDS011;1136;51.574;7.706;2023-08-31T14:17:50;4.10;;;2.90;;
2257;SDS011;1136;51.574;7.706;2023-08-31T14:20:18;2.93;;;2.70;;
2257;SDS011;1136;51.574;7.706;2023-08-31T14:22:45;9.20;;;2.43;;
2257;SDS011;1136;51.574;7.706;2023-08-31T14:25:12;2.67;;;2.47;;
2257;SDS011;1136;51.574;7.706;2023-08-31T14:27:39;5.67;;;2.30;;
2257;SDS011;1136;51.574;7.706;2023-08-31T14:30:05;4.40;;;2.90;;
2257;SDS011;1136;51.574;7.706;2023-08-31T14:32:33;9.17;;;3.53;;
2257;SDS011;1136;51.574;7.706;2023-08-31T14:35:00;5.47;;;4.27;;
2257;SDS011;1136;51.574;7.706;2023-08-31T14:37:26;7.77;;;4.40;;
2257;SDS011;1136;51.574;7.706;2023-08-31T14:39:53;7.07;;;5.40;;
2257;SDS011;1136;51.574;7.706;2023-08-31T14:42:20;7.13;;;6.43;;
2257;SDS011;1136;51.574;7.706;2023-08-31T14:44:47;10.80;;;4.53;;
2257;SDS011;1136;51.574;7.706;2023-08-31T14:47:15;9.67;;;6.17;;
2257;SDS011;1136;51.574;7.706;2023-08-31T14:49:43;5.83;;;5.30;;
2257;SDS011;1136;51.574;7.706;2023-08-31T14:52:10;6.07;;;5.60;;
2257;SDS011;1136;51.574;7.706;2023-08-31T14:54:36;7.07;;;5.07;;
2257;SDS011;1136;51.574;7.706;2023-08-31T14:57:03;12.97;;;7.00;;
2257;SDS011;1136;51.574;7.706;2023-08-31T14:59:30;5.87;;;5.37;;
2257;SDS011;1136;51.574;7.706;2023-08-31T15:01:57;9.70;;;5.03;;
2257;SDS011;1136;51.574;7.706;2023-08-31T15:04:23;5.93;;;5.53;;
2257;SDS011;1136;51.574;7.706;2023-08-31T15:06:53;5.67;;;5.17;;
2257;SDS011;1136;51.574;7.706;2023-08-31T15:09:20;6.60;;;6.00;;
2257;SDS011;1136;51.574;7.706;2023-08-31T15:11:46;5.90;;;5.40;;
2257;SDS011;1136;51.574;7.706;2023-08-31T15:14:13;5.63;;;5.13;;
2257;SDS011;1136;51.574;7.706;2023-08-31T15:16:40;5.60;;;5.10;;
2257;SDS011;1136;51.574;7.706;2023-08-31T15:19:07;6.43;;;5.83;;
2257;SDS011;1136;51.574;7.706;2023-08-31T15:21:34;7.10;;;5.27;;
2257;SDS011;1136;51.574;7.706;2023-08-31T15:24:01;7.03;;;6.33;;
2257;SDS011;1136;51.574;7.706;2023-08-31T15:26:29;9.00;;;6.60;;
2257;SDS011;1136;51.574;7.706;2023-08-31T15:28:55;12.30;;;7.80;;
2257;SDS011;1136;51.574;7.706;2023-08-31T15:31:22;7.87;;;6.67;;
2257;SDS011;1136;51.574;7.706;2023-08-31T15:33:49;7.30;;;6.70;;
2257;SDS011;1136;51.574;7.706;2023-08-31T15:36:16;9.40;;;8.20;;
2257;SDS011;1136;51.574;7.706;2023-08-31T15:38:43;9.63;;;8.17;;
2257;SDS011;1136;51.574;7.706;2023-08-31T15:41:12;9.17;;;8.33;;